Time;durP1;ratioP1;P1;durP2;ratioP2;P2;SDS_P1;SDS_P2;PMS_P1;PMS_P2;Temp;Humidity;BMP_temperature;BMP_pressure;BME280_temperature;BME280_humidity;BME280_pressure;Samples;Min_cycle;Max_cycle;Signal;HPM_P1;HPM_P2
2024/01/18 00:02:22;;;;;;;26.70;13.00;;;;;;;-128.00;-1.00;-1.00;100141;1285;1046265;-34
2024/01/18 00:04:48;;;;;;;32.40;14.70;;;;;;;-128.00;-1.00;-1.00;100039;1282;1004330;-32
2024/01/18 00:07:14;;;;;;;;;;;;;;;-128.00;-1.00;-1.00;100101;1281;1003877;-30
2024/01/18 00:09:40;;;;;;;31.00;13.10;;;;;;;-128.00;-1.00;-1.00;100048;1281;1004267;-33
2024/01/18 00:12:05;;;;;;;32.90;14.60;;;;;;;-128.00;-1.00;-1.00;100108;1281;1004260;-31
2024/01/18 00:14:31;;;;;;;28.70;12.60;;;;;;;-128.00;-1.00;-1.00;100188;1282;1045568;-31
2024/01/18 00:16:57;;;;;;;29.60;14.40;;;;;;;-128.00;-1.00;-1.00;100163;1282;1004138;-44
2024/01/18 00:19:22;;;;;;;31.20;14.20;;;;;;;-128.00;-1.00;-1.00;100252;1282;1056463;-35
2024/01/18 00:21:48;;;;;;;28.90;14.40;;;;;;;-128.00;-1.00;-1.00;100142;1281;1004396;-32
2024/01/18 00:24:14;;;;;;;29.50;13.80;;;;;;;-128.00;-1.00;-1.00;100096;1284;1045373;-32
2024/01/18 00:26:39;;;;;;;25.10;13.70;;;;;;;-128.00;-1.00;-1.00;100188;1282;1004833;-40
2024/01/18 00:29:05;;;;;;;38.00;16.40;;;;;;;-128.00;-1.00;-1.00;100158;1282;1057449;-33
2024/01/18 00:31:31;;;;;;;32.90;14.80;;;;;;;-128.00;-1.00;-1.00;100087;1282;1004773;-34
2024/01/18 00:33:59;;;;;;;25.70;13.20;;;;;;;-128.00;-1.00;-1.00;100143;1282;1004709;-31
2024/01/18 00:36:26;;;;;;;28.20;13.90;;;;;;;-128.00;-1.00;-1.00;100167;1282;1047808;-31
2024/01/18 00:38:52;;;;;;;26.60;13.80;;;;;;;-128.00;-1.00;-1.00;100169;1282;1004787;-32
2024/01/18 00:41:17;;;;;;;46.10;17.90;;;;;;;-128.00;-1.00;-1.00;100060;1282;1004814;-32
2024/01/18 00:43:43;;;;;;;38.00;16.30;;;;;;;-128.00;-1.00;-1.00;100075;1282;1003725;-32
2024/01/18 00:46:08;;;;;;;44.40;18.40;;;;;;;-128.00;-1.00;-1.00;100149;1286;1045575;-34
2024/01/18 00:48:34;;;;;;;30.00;14.40;;;;;;;-128.00;-1.00;-1.00;100115;1281;1004330;-32
2024/01/18 00:50:59;;;;;;;30.60;15.00;;;;;;;-128.00;-1.00;-1.00;100171;1281;1004219;-33
2024/01/18 00:53:25;;;;;;;30.10;15.00;;;;;;;-128.00;-1.00;-1.00;100038;1282;1004349;-33
2024/01/18 00:55:51;;;;;;;29.90;15.70;;;;;;;-128.00;-1.00;-1.00;100019;1282;1004158;-37
2024/01/18 00:58:17;;;;;;;30.60;14.80;;;;;;;-128.00;-1.00;-1.00;100177;1282;1047753;-32
2024/01/18 01:00:43;;;;;;;29.80;15.20;;;;;;;-128.00;-1.00;-1.00;100110;1282;1003981;-31
2024/01/18 01:03:09;;;;;;;31.20;16.10;;;;;;;-128.00;-1.00;-1.00;100108;1281;1004645;-34
2024/01/18 01:05:34;;;;;;;30.90;15.00;;;;;;;-128.00;-1.00;-1.00;100110;1282;1004163;-34
2024/01/18 01:08:00;;;;;;;35.10;17.50;;;;;;;-128.00;-1.00;-1.00;100213;1281;1005897;-31
2024/01/18 01:10:25;;;;;;;30.00;15.50;;;;;;;-128.00;-1.00;-1.00;100204;1282;1003795;-32
2024/01/18 01:12:51;;;;;;;31.70;14.70;;;;;;;-128.00;-1.00;-1.00;100044;1282;1056486;-33
2024/01/18 01:15:17;;;;;;;30.40;15.00;;;;;;;-128.00;-1.00;-1.00;100119;1282;1004284;-31
2024/01/18 01:17:43;;;;;;;34.30;16.70;;;;;;;-128.00;-1.00;-1.00;100126;1284;1045156;-32
2024/01/18 01:20:11;;;;;;;;;;;;;;;-128.00;-1.00;-1.00;100166;1282;1003985;-31
2024/01/18 01:22:37;;;;;;;31.00;15.60;;;;;;;-128.00;-1.00;-1.00;100226;1282;1060784;-35
2024/01/18 01:25:03;;;;;;;39.70;16.60;;;;;;;-128.00;-1.00;-1.00;100217;1282;1004511;-35
2024/01/18 01:27:29;;;;;;;32.70;15.40;;;;;;;-128.00;-1.00;-1.00;100122;1282;1014906;-36
2024/01/18 01:29:54;;;;;;;35.90;16.50;;;;;;;-128.00;-1.00;-1.00;100106;1282;1004739;-34
2024/01/18 01:32:20;;;;;;;29.40;15.70;;;;;;;-128.00;-1.00;-1.00;100194;1282;1004811;-32
2024/01/18 01:34:46;;;;;;;;;;;;;;;-128.00;-1.00;-1.00;100066;1282;1056790;-32
2024/01/18 01:37:13;;;;;;;42.50;18.60;;;;;;;-128.00;-1.00;-1.00;100058;1282;1006036;-31
2024/01/18 01:39:40;;;;;;;34.00;15.50;;;;;;;-128.00;-1.00;-1.00;100149;1282;1045636;-33
2024/01/18 01:42:06;;;;;;;30.80;15.30;;;;;;;-128.00;-1.00;-1.00;100097;1282;1004604;-35
2024/01/18 01:44:31;;;;;;;28.00;14.70;;;;;;;-128.00;-1.00;-1.00;100216;1282;1004639;-35
2024/01/18 01:46:57;;;;;;;32.00;15.50;;;;;;;-128.00;-1.00;-1.00;100163;1282;1004798;-33
2024/01/18 01:49:23;;;;;;;34.00;15.80;;;;;;;-128.00;-1.00;-1.00;100033;1282;1014553;-33
2024/01/18 01:51:49;;;;;;;33.80;15.30;;;;;;;-128.00;-1.00;-1.00;100114;1283;1004893;-36
2024/01/18 02:34:32;;;;;;;35.00;17.20;;;;;;;-102.13;19.20;19309.44;100877;1283;1599334;-32
2024/01/18 02:36:58;;;;;;;29.50;16.00;;;;;;;-128.00;-1.00;-1.00;100266;1279;1002918;-32
2024/01/18 02:39:23;;;;;;;31.10;16.40;;;;;;;-128.00;-1.00;-1.00;100610;1284;1002627;-31
2024/01/18 02:41:49;;;;;;;34.20;16.00;;;;;;;-128.00;-1.00;-1.00;100259;1282;1060755;-34
2024/01/18 02:44:15;;;;;;;36.30;16.60;;;;;;;-128.00;-1.00;-1.00;100301;1280;1003107;-37
2024/01/18 02:46:40;;;;;;;34.30;17.00;;;;;;;-128.00;-1.00;-1.00;100469;1280;1003184;-31
2024/01/18 02:49:06;;;;;;;36.90;16.80;;;;;;;-128.00;-1.00;-1.00;100515;1285;1039242;-38
2024/01/18 02:51:32;;;;;;;33.20;16.50;;;;;;;-128.00;-1.00;-1.00;100424;1280;1003873;-34
2024/01/18 02:53:58;;;;;;;33.30;16.70;;;;;;;-128.00;-1.00;-1.00;100523;1282;1055272;-33
2024/01/18 02:56:24;;;;;;;36.40;17.30;;;;;;;-128.00;-1.00;-1.00;100442;1283;1003590;-31
2024/01/18 02:58:49;;;;;;;32.50;16.30;;;;;;;-128.00;-1.00;-1.00;100203;1283;1002586;-32
2024/01/18 03:01:16;;;;;;;35.50;17.10;;;;;;;-128.00;-1.00;-1.00;100467;1281;1047014;-33
2024/01/18 03:03:41;;;;;;;32.70;16.00;;;;;;;-128.00;-1.00;-1.00;100351;1285;1002893;-34
2024/01/18 03:06:07;;;;;;;28.80;15.20;;;;;;;-128.00;-1.00;-1.00;100543;1283;1003360;-33
2024/01/18 03:08:33;;;;;;;31.80;15.30;;;;;;;-128.00;-1.00;-1.00;100498;1281;1013496;-33
2024/01/18 03:10:58;;;;;;;35.50;16.50;;;;;;;-128.00;-1.00;-1.00;100524;1283;1004395;-31
2024/01/18 03:13:24;;;;;;;30.00;15.70;;;;;;;-128.00;-1.00;-1.00;100501;1283;1003521;-34
2024/01/18 03:15:49;;;;;;;35.00;16.70;;;;;;;-128.00;-1.00;-1.00;100461;1280;1003900;-34
2024/01/18 03:18:15;;;;;;;34.80;17.00;;;;;;;-128.00;-1.00;-1.00;100327;1281;1002648;-31
2024/01/18 03:20:41;;;;;;;35.90;17.10;;;;;;;-128.00;-1.00;-1.00;100558;1283;1003730;-33
2024/01/18 03:23:06;;;;;;;37.80;17.70;;;;;;;-128.00;-1.00;-1.00;100599;1280;1003464;-34
2024/01/18 03:25:32;;;;;;;38.90;19.60;;;;;;;-128.00;-1.00;-1.00;100553;1283;1003572;-35
2024/01/18 03:27:58;;;;;;;44.10;22.60;;;;;;;-128.00;-1.00;-1.00;100306;1283;1059640;-33
2024/01/18 03:30:24;;;;;;;;;;;;;;;-128.00;-1.00;-1.00;100342;1288;1003601;-32
2024/01/18 03:32:49;;;;;;;29.80;15.70;;;;;;;-128.00;-1.00;-1.00;100459;1284;1003366;-32
2024/01/18 03:35:15;;;;;;;25.50;12.90;;;;;;;-128.00;-1.00;-1.00;100468;1282;1002877;-35
2024/01/18 03:37:40;;;;;;;30.70;13.70;;;;;;;-128.00;-1.00;-1.00;100496;1282;1002919;-35
2024/01/18 03:40:10;;;;;;;31.40;14.20;;;;;;;-128.00;-1.00;-1.00;100507;1283;1004927;-34
2024/01/18 03:42:41;;;;;;;38.10;18.00;;;;;;;-128.00;-1.00;-1.00;100490;1283;1037613;-35
2024/01/18 03:45:07;;;;;;;44.10;20.10;;;;;;;-128.00;-1.00;-1.00;100488;1282;1046650;-32
2024/01/18 03:47:33;;;;;;;45.70;22.60;;;;;;;-128.00;-1.00;-1.00;100498;1282;1003334;-31
2024/01/18 03:49:59;;;;;;;44.30;20.50;;;;;;;-128.00;-1.00;-1.00;100577;1283;1003554;-32
2024/01/18 03:52:24;;;;;;;;;;;;;;;-128.00;-1.00;-1.00;100435;1283;1012680;-32
2024/01/18 03:54:50;;;;;;;35.10;15.90;;;;;;;-128.00;-1.00;-1.00;100502;1281;1002921;-32
2024/01/18 03:57:15;;;;;;;32.70;16.10;;;;;;;-128.00;-1.00;-1.00;100173;1283;1003275;-33
2024/01/18 03:59:43;;;;;;;37.90;17.90;;;;;;;-128.00;-1.00;-1.00;100465;1281;1004181;-30
2024/01/18 04:02:09;;;;;;;48.10;23.10;;;;;;;-128.00;-1.00;-1.00;100225;1283;1003149;-34
2024/01/18 04:04:35;;;;;;;51.40;22.90;;;;;;;-128.00;-1.00;-1.00;100409;1282;1004133;-34
2024/01/18 04:07:00;;;;;;;46.10;20.60;;;;;;;-128.00;-1.00;-1.00;100509;1283;1003230;-32
2024/01/18 04:09:26;;;;;;;52.30;23.70;;;;;;;-128.00;-1.00;-1.00;100414;1282;1060172;-32
2024/01/18 04:11:52;;;;;;;57.60;24.80;;;;;;;-128.00;-1.00;-1.00;100298;1283;1003511;-31
2024/01/18 04:14:18;;;;;;;50.40;22.20;;;;;;;-128.00;-1.00;-1.00;100366;1285;1003124;-33
2024/01/18 04:16:43;;;;;;;60.20;25.00;;;;;;;-128.00;-1.00;-1.00;100424;1283;1003502;-32
2024/01/18 04:19:09;;;;;;;45.30;20.80;;;;;;;-128.00;-1.00;-1.00;100410;1283;1003004;-35
2024/01/18 04:21:35;;;;;;;47.50;20.80;;;;;;;-128.00;-1.00;-1.00;100397;1283;1004527;-31
2024/01/18 04:24:00;;;;;;;40.90;18.30;;;;;;;-128.00;-1.00;-1.00;100385;1283;1004635;-37
2024/01/18 04:26:27;;;;;;;32.40;15.40;;;;;;;-128.00;-1.00;-1.00;100245;1283;1012554;-32
2024/01/18 04:28:53;;;;;;;31.70;16.00;;;;;;;-128.00;-1.00;-1.00;100141;1284;1003437;-30
2024/01/18 04:31:18;;;;;;;33.70;15.30;;;;;;;-128.00;-1.00;-1.00;100437;1283;1005229;-30
2024/01/18 04:33:44;;;;;;;31.90;16.10;;;;;;;-128.00;-1.00;-1.00;100142;1283;1002604;-31
2024/01/18 04:36:10;;;;;;;;;;;;;;;-128.00;-1.00;-1.00;100411;1281;1060922;-32
2024/01/18 04:38:36;;;;;;;38.70;17.50;;;;;;;-128.00;-1.00;-1.00;100420;1283;1003407;-33
2024/01/18 04:41:02;;;;;;;37.40;19.30;;;;;;;-128.00;-1.00;-1.00;100493;1283;1046035;-32
2024/01/18 04:43:28;;;;;;;34.10;18.50;;;;;;;-128.00;-1.00;-1.00;100384;1283;1002717;-32
2024/01/18 04:45:53;;;;;;;45.30;22.10;;;;;;;-128.00;-1.00;-1.00;100508;1282;1002991;-31
2024/01/18 04:48:19;;;;;;;44.60;21.40;;;;;;;-128.00;-1.00;-1.00;100452;1282;1012913;-30
2024/01/18 04:50:45;;;;;;;47.30;22.30;;;;;;;-128.00;-1.00;-1.00;100399;1282;1003485;-33
2024/01/18 04:53:10;;;;;;;57.30;25.20;;;;;;;-128.00;-1.00;-1.00;100465;1282;1002418;-33
2024/01/18 04:55:36;;;;;;;50.50;21.90;;;;;;;-128.00;-1.00;-1.00;100475;1283;1003589;-31
2024/01/18 04:58:01;;;;;;;57.70;23.80;;;;;;;-128.00;-1.00;-1.00;100382;1283;1002907;-30
2024/01/18 05:00:27;;;;;;;57.00;24.00;;;;;;;-128.00;-1.00;-1.00;100450;1283;1002642;-33
2024/01/18 05:02:52;;;;;;;53.30;21.30;;;;;;;-128.00;-1.00;-1.00;100488;1283;1002644;-30
2024/01/18 05:05:19;;;;;;;51.60;22.90;;;;;;;-128.00;-1.00;-1.00;100428;1282;1003026;-33
2024/01/18 05:07:45;;;;;;;54.60;23.40;;;;;;;-128.00;-1.00;-1.00;100192;1283;1003411;-33
2024/01/18 05:10:11;;;;;;;50.60;22.60;;;;;;;-128.00;-1.00;-1.00;100552;1282;1003779;-30
2024/01/18 05:12:37;;;;;;;57.50;23.20;;;;;;;-128.00;-1.00;-1.00;100560;1282;1002914;-30
2024/01/18 05:15:03;;;;;;;;;;;;;;;-128.00;-1.00;-1.00;100418;1282;1059714;-31
2024/01/18 05:17:34;;;;;;;55.60;23.40;;;;;;;-128.00;-1.00;-1.00;100509;1283;1003897;-31
2024/01/18 05:20:04;;;;;;;49.80;20.40;;;;;;;-128.00;-1.00;-1.00;100503;1282;1057945;-39
2024/01/18 05:22:31;;;;;;;53.80;22.60;;;;;;;-128.00;-1.00;-1.00;100364;1283;1013097;-33
2024/01/18 05:24:57;;;;;;;50.60;22.00;;;;;;;-128.00;-1.00;-1.00;100508;1285;1004224;-32
2024/01/18 05:27:27;;;;;;;57.40;24.00;;;;;;;-128.00;-1.00;-1.00;100501;1283;1004452;-31
2024/01/18 05:29:53;;;;;;;51.00;21.40;;;;;;;-128.00;-1.00;-1.00;100391;1283;1060391;-33
2024/01/18 05:32:22;;;;;;;52.70;22.70;;;;;;;-128.00;-1.00;-1.00;100426;1281;1003200;-33
2024/01/18 05:34:48;;;;;;;57.50;24.00;;;;;;;-128.00;-1.00;-1.00;100265;1282;1004095;-32
2024/01/18 05:37:15;;;;;;;50.30;21.90;;;;;;;-128.00;-1.00;-1.00;100535;1283;1004137;-33
2024/01/18 05:39:40;;;;;;;52.80;23.00;;;;;;;-128.00;-1.00;-1.00;100282;1285;1003994;-30
2024/01/18 05:42:06;;;;;;;52.80;22.80;;;;;;;-128.00;-1.00;-1.00;100302;1282;1003265;-33
2024/01/18 05:44:33;;;;;;;48.20;22.30;;;;;;;-128.00;-1.00;-1.00;100508;1283;1003373;-30
2024/01/18 05:46:58;;;;;;;;;;;;;;;-128.00;-1.00;-1.00;100403;1283;1057832;-30
2024/01/18 05:49:24;;;;;;;43.10;18.50;;;;;;;-128.00;-1.00;-1.00;100494;1282;1003169;-32
2024/01/18 05:51:51;;;;;;;44.30;20.50;;;;;;;-128.00;-1.00;-1.00;100537;1284;1002742;-31
2024/01/18 05:54:17;;;;;;;50.80;23.00;;;;;;;-128.00;-1.00;-1.00;100431;1283;1003871;-31
2024/01/18 05:56:42;;;;;;;;;;;;;;;-128.00;-1.00;-1.00;100275;1282;1055968;-33
2024/01/18 05:59:08;;;;;;;34.90;15.80;;;;;;;-128.00;-1.00;-1.00;100547;1283;1003139;-38
2024/01/18 06:01:34;;;;;;;35.50;17.60;;;;;;;-128.00;-1.00;-1.00;100413;1282;1003010;-34
2024/01/18 06:04:00;;;;;;;36.00;17.20;;;;;;;-128.00;-1.00;-1.00;100449;1283;1003544;-33
2024/01/18 06:06:25;;;;;;;32.20;15.90;;;;;;;-128.00;-1.00;-1.00;100432;1282;1003420;-33
2024/01/18 06:08:51;;;;;;;36.70;17.20;;;;;;;-128.00;-1.00;-1.00;100386;1282;1059170;-35
2024/01/18 06:11:18;;;;;;;34.90;17.60;;;;;;;-128.00;-1.00;-1.00;100592;1283;1003828;-35
2024/01/18 06:13:43;;;;;;;37.20;18.10;;;;;;;-128.00;-1.00;-1.00;100441;1281;1003096;-32
2024/01/18 06:16:10;;;;;;;39.40;17.90;;;;;;;-128.00;-1.00;-1.00;100413;1281;1003106;-35
2024/01/18 06:18:37;;;;;;;40.70;21.00;;;;;;;-128.00;-1.00;-1.00;100402;1281;1003221;-32
2024/01/18 06:21:04;;;;;;;41.10;20.00;;;;;;;-128.00;-1.00;-1.00;100450;1282;1005132;-32
2024/01/18 06:23:29;;;;;;;38.00;18.00;;;;;;;-128.00;-1.00;-1.00;100529;1283;1003367;-33
2024/01/18 06:25:55;;;;;;;35.60;16.40;;;;;;;-128.00;-1.00;-1.00;100578;1282;1003411;-35
2024/01/18 06:28:21;;;;;;;35.60;17.60;;;;;;;-128.00;-1.00;-1.00;100477;1283;1003134;-32
2024/01/18 06:30:46;;;;;;;34.50;16.70;;;;;;;-128.00;-1.00;-1.00;100426;1282;1059502;-33
2024/01/18 06:33:12;;;;;;;43.60;19.00;;;;;;;-128.00;-1.00;-1.00;100474;1281;1002433;-33
2024/01/18 06:35:38;;;;;;;38.30;17.60;;;;;;;-128.00;-1.00;-1.00;100483;1283;1013806;-32
2024/01/18 06:38:03;;;;;;;32.90;15.70;;;;;;;-128.00;-1.00;-1.00;100418;1282;1002888;-33
2024/01/18 06:40:29;;;;;;;39.20;17.60;;;;;;;-128.00;-1.00;-1.00;100500;1283;1004206;-33
2024/01/18 06:42:55;;;;;;;42.40;20.30;;;;;;;-128.00;-1.00;-1.00;100332;1283;1003152;-31
2024/01/18 06:45:20;;;;;;;39.90;18.20;;;;;;;-128.00;-1.00;-1.00;100257;1283;1002914;-35
2024/01/18 06:47:46;;;;;;;44.20;19.20;;;;;;;-128.00;-1.00;-1.00;100437;1285;1003220;-33
2024/01/18 06:50:13;;;;;;;40.20;17.80;;;;;;;-128.00;-1.00;-1.00;100261;1282;1004424;-35
2024/01/18 06:52:39;;;;;;;42.80;19.80;;;;;;;-128.00;-1.00;-1.00;100446;1282;1055853;-33
2024/01/18 06:55:06;;;;;;;50.60;21.20;;;;;;;-128.00;-1.00;-1.00;100429;1283;1002583;-35
2024/01/18 06:57:31;;;;;;;45.30;18.30;;;;;;;-128.00;-1.00;-1.00;100387;1282;1003509;-34
2024/01/18 06:59:57;;;;;;;36.50;17.10;;;;;;;-128.00;-1.00;-1.00;100407;1281;1003370;-31
2024/01/18 07:02:22;;;;;;;32.70;12.10;;;;;;;-128.00;-1.00;-1.00;100492;1283;1002862;-33
2024/01/18 07:04:48;;;;;;;44.50;19.50;;;;;;;-128.00;-1.00;-1.00;100473;1282;1002872;-35
2024/01/18 07:07:13;;;;;;;37.20;17.30;;;;;;;-128.00;-1.00;-1.00;100405;1281;1003093;-32
2024/01/18 07:09:39;;;;;;;42.00;20.70;;;;;;;-128.00;-1.00;-1.00;100411;1283;1038276;-32
2024/01/18 07:12:05;;;;;;;39.90;17.40;;;;;;;-128.00;-1.00;-1.00;100240;1283;1003336;-33
2024/01/18 07:14:31;;;;;;;41.30;19.40;;;;;;;-128.00;-1.00;-1.00;100475;1283;1056151;-34
2024/01/18 07:16:56;;;;;;;36.40;16.50;;;;;;;-128.00;-1.00;-1.00;100528;1282;1003276;-33
2024/01/18 07:19:22;;;;;;;26.90;14.50;;;;;;;-128.00;-1.00;-1.00;100545;1282;1039061;-34
2024/01/18 07:21:47;;;;;;;40.00;19.20;;;;;;;-128.00;-1.00;-1.00;100616;1283;1004126;-32
2024/01/18 07:24:13;;;;;;;48.60;20.20;;;;;;;-128.00;-1.00;-1.00;100485;1283;1058898;-32
2024/01/18 07:26:39;;;;;;;56.70;22.60;;;;;;;-128.00;-1.00;-1.00;100399;1282;1002964;-33
2024/01/18 07:29:05;;;;;;;55.50;23.00;;;;;;;-128.00;-1.00;-1.00;100246;1283;1038933;-32
2024/01/18 07:31:31;;;;;;;49.10;21.50;;;;;;;-128.00;-1.00;-1.00;100328;1282;1003451;-36
2024/01/18 07:33:57;;;;;;;50.30;21.30;;;;;;;-128.00;-1.00;-1.00;100489;1281;1003357;-34
2024/01/18 07:36:22;;;;;;;53.40;21.80;;;;;;;-128.00;-1.00;-1.00;100413;1283;1059680;-34
2024/01/18 07:38:48;;;;;;;47.80;20.50;;;;;;;-128.00;-1.00;-1.00;100487;1283;1005150;-33
2024/01/18 07:41:13;;;;;;;43.30;19.70;;;;;;;-128.00;-1.00;-1.00;100456;1282;1046261;-33
2024/01/18 07:43:39;;;;;;;51.80;21.90;;;;;;;-128.00;-1.00;-1.00;100414;1282;1002973;-33
2024/01/18 07:46:05;;;;;;;60.60;23.00;;;;;;;-128.00;-1.00;-1.00;100434;1283;1002993;-34
2024/01/18 07:48:31;;;;;;;;;;;;;;;-128.00;-1.00;-1.00;100470;1283;1013177;-35
2024/01/18 07:50:57;;;;;;;72.10;25.90;;;;;;;-128.00;-1.00;-1.00;100418;1282;1003500;-32
2024/01/18 07:53:23;;;;;;;;;;;;;;;-128.00;-1.00;-1.00;100296;1282;1002781;-35
2024/01/18 07:55:50;;;;;;;75.20;26.40;;;;;;;-128.00;-1.00;-1.00;100503;1282;1003498;-35
2024/01/18 07:58:15;;;;;;;84.70;29.50;;;;;;;-128.00;-1.00;-1.00;100495;1282;1059093;-32
2024/01/18 08:00:41;;;;;;;69.80;26.30;;;;;;;-128.00;-1.00;-1.00;100462;1281;1003959;-36
2024/01/18 08:03:07;;;;;;;97.30;30.70;;;;;;;-128.00;-1.00;-1.00;100468;1282;1046976;-36
2024/01/18 08:05:33;;;;;;;83.80;27.90;;;;;;;-128.00;-1.00;-1.00;100565;1283;1002956;-36
2024/01/18 08:07:58;;;;;;;84.80;29.30;;;;;;;-128.00;-1.00;-1.00;100525;1282;1003381;-33
2024/01/18 08:10:24;;;;;;;92.70;31.20;;;;;;;-128.00;-1.00;-1.00;100295;1288;1003224;-36
2024/01/18 08:12:49;;;;;;;99.70;33.10;;;;;;;-128.00;-1.00;-1.00;100436;1283;1003537;-35
2024/01/18 08:15:15;;;;;;;102.70;31.30;;;;;;;-128.00;-1.00;-1.00;100434;1283;1003206;-35
2024/01/18 08:17:43;;;;;;;111.70;33.70;;;;;;;-128.00;-1.00;-1.00;100437;1283;1003473;-36
2024/01/18 08:20:12;;;;;;;93.20;26.60;;;;;;;-128.00;-1.00;-1.00;100497;1282;1059112;-35
2024/01/18 08:22:40;;;;;;;107.00;31.80;;;;;;;-128.00;-1.00;-1.00;100478;1281;1012939;-33
2024/01/18 08:25:07;;;;;;;101.70;30.40;;;;;;;-128.00;-1.00;-1.00;100472;1285;1038700;-34
2024/01/18 08:27:33;;;;;;;103.50;30.30;;;;;;;-128.00;-1.00;-1.00;100550;1283;1003889;-32
2024/01/18 08:29:59;;;;;;;92.70;28.70;;;;;;;-128.00;-1.00;-1.00;100468;1283;1003433;-35
2024/01/18 08:32:31;;;;;;;95.60;29.20;;;;;;;-128.00;-1.00;-1.00;100450;1283;1002866;-32
2024/01/18 08:34:57;;;;;;;93.90;28.60;;;;;;;-128.00;-1.00;-1.00;100442;1282;1013232;-35
2024/01/18 08:37:23;;;;;;;106.30;32.40;;;;;;;-128.00;-1.00;-1.00;100288;1283;1003018;-32
2024/01/18 08:39:49;;;;;;;106.70;33.40;;;;;;;-128.00;-1.00;-1.00;100515;1285;1003562;-31
2024/01/18 08:42:15;;;;;;;107.90;33.60;;;;;;;-128.00;-1.00;-1.00;100473;1282;1055766;-33
2024/01/18 08:44:45;;;;;;;108.20;30.90;;;;;;;-128.00;-1.00;-1.00;100313;1285;1002939;-35
2024/01/18 08:47:12;;;;;;;102.10;32.10;;;;;;;-128.00;-1.00;-1.00;100252;1281;1038825;-34
2024/01/18 08:49:38;;;;;;;78.60;27.00;;;;;;;-128.00;-1.00;-1.00;100529;1282;1003124;-34
2024/01/18 08:52:04;;;;;;;84.90;28.60;;;;;;;-128.00;-1.00;-1.00;100360;1282;1004590;-38
2024/01/18 08:54:30;;;;;;;91.50;28.70;;;;;;;-128.00;-1.00;-1.00;100451;1283;1004553;-32
2024/01/18 08:56:56;;;;;;;;;;;;;;;-128.00;-1.00;-1.00;100490;1282;1004126;-36
2024/01/18 08:59:23;;;;;;;109.30;35.60;;;;;;;-128.00;-1.00;-1.00;100261;1285;1039032;-31
2024/01/18 09:01:49;;;;;;;110.20;36.30;;;;;;;-128.00;-1.00;-1.00;100454;1283;1002645;-32
2024/01/18 09:04:16;;;;;;;108.30;34.20;;;;;;;-128.00;-1.00;-1.00;100478;1282;1004239;-34
2024/01/18 09:06:42;;;;;;;110.50;34.40;;;;;;;-128.00;-1.00;-1.00;100465;1283;1003244;-32
2024/01/18 09:09:11;;;;;;;105.60;32.20;;;;;;;-128.00;-1.00;-1.00;100529;1285;1002905;-34
2024/01/18 09:11:37;;;;;;;104.70;32.60;;;;;;;-128.00;-1.00;-1.00;100267;1281;1013354;-32
2024/01/18 09:14:03;;;;;;;102.10;32.20;;;;;;;-128.00;-1.00;-1.00;100448;1283;1002682;-34
2024/01/18 09:16:31;;;;;;;104.40;33.00;;;;;;;-128.00;-1.00;-1.00;100506;1283;1002861;-34
2024/01/18 09:18:57;;;;;;;120.40;34.60;;;;;;;-128.00;-1.00;-1.00;100459;1283;1004072;-31
2024/01/18 09:21:23;;;;;;;121.00;35.60;;;;;;;-128.00;-1.00;-1.00;100469;1282;1004367;-33
2024/01/18 09:23:48;;;;;;;118.60;35.60;;;;;;;-128.00;-1.00;-1.00;100389;1283;1002376;-31
2024/01/18 09:26:14;;;;;;;86.50;29.50;;;;;;;-128.00;-1.00;-1.00;100402;1281;1039458;-33
2024/01/18 09:28:40;;;;;;;98.50;32.70;;;;;;;-128.00;-1.00;-1.00;100554;1283;1003209;-33
2024/01/18 09:31:06;;;;;;;102.30;31.80;;;;;;;-128.00;-1.00;-1.00;100326;1282;1004018;-33
2024/01/18 09:33:32;;;;;;;104.50;33.20;;;;;;;-128.00;-1.00;-1.00;100432;1282;1003588;-32
2024/01/18 09:35:57;;;;;;;109.70;35.50;;;;;;;-128.00;-1.00;-1.00;100125;1283;1002724;-30
2024/01/18 09:38:23;;;;;;;120.60;35.60;;;;;;;-128.00;-1.00;-1.00;100348;1281;1004313;-34
2024/01/18 09:40:48;;;;;;;94.20;30.10;;;;;;;-128.00;-1.00;-1.00;100598;1283;1002958;-35
2024/01/18 09:43:14;;;;;;;;;;;;;;;-128.00;-1.00;-1.00;100480;1283;1055018;-31
2024/01/18 09:45:42;;;;;;;71.90;26.60;;;;;;;-128.00;-1.00;-1.00;100477;1283;1003594;-31
2024/01/18 09:48:07;;;;;;;90.20;30.40;;;;;;;-128.00;-1.00;-1.00;100437;1283;1003926;-31
2024/01/18 09:50:33;;;;;;;85.20;31.40;;;;;;;-128.00;-1.00;-1.00;100437;1282;1003530;-31
2024/01/18 09:52:59;;;;;;;;;;;;;;;-128.00;-1.00;-1.00;100513;1282;1004077;-31
2024/01/18 09:55:25;;;;;;;111.90;34.10;;;;;;;-128.00;-1.00;-1.00;100280;1282;1003015;-32
2024/01/18 09:57:50;;;;;;;109.30;34.00;;;;;;;-128.00;-1.00;-1.00;100269;1282;1003071;-31
2024/01/18 10:00:16;;;;;;;114.20;34.40;;;;;;;-128.00;-1.00;-1.00;100457;1284;1039147;-31
2024/01/18 10:02:41;;;;;;;119.20;37.30;;;;;;;-128.00;-1.00;-1.00;100455;1280;1002856;-31
2024/01/18 10:05:07;;;;;;;115.20;36.70;;;;;;;-128.00;-1.00;-1.00;100525;1283;1055925;-33
2024/01/18 10:07:33;;;;;;;;;;;;;;;-128.00;-1.00;-1.00;100479;1282;1002673;-32
2024/01/18 10:09:58;;;;;;;136.90;38.10;;;;;;;-128.00;-1.00;-1.00;100494;1282;1002896;-30
2024/01/18 10:12:31;;;;;;;119.20;37.60;;;;;;;-128.00;-1.00;-1.00;100272;1283;1045759;-31
2024/01/18 10:14:57;;;;;;;112.50;38.30;;;;;;;-128.00;-1.00;-1.00;100133;1283;1060795;-30
2024/01/18 10:17:23;;;;;;;129.90;38.20;;;;;;;-128.00;-1.00;-1.00;100115;1283;1003808;-33
2024/01/18 10:19:50;;;;;;;140.80;41.00;;;;;;;-128.00;-1.00;-1.00;100415;1283;1004612;-31
2024/01/18 10:22:18;;;;;;;145.50;41.00;;;;;;;-128.00;-1.00;-1.00;100252;1288;1003355;-31
2024/01/18 10:24:43;;;;;;;149.80;41.80;;;;;;;-128.00;-1.00;-1.00;100490;1282;1002593;-29
2024/01/18 10:27:09;;;;;;;137.20;39.80;;;;;;;-128.00;-1.00;-1.00;100241;1283;1003339;-30
2024/01/18 10:29:38;;;;;;;115.20;35.90;;;;;;;-128.00;-1.00;-1.00;100482;1283;1003819;-31
2024/01/18 10:32:06;;;;;;;142.80;41.00;;;;;;;-128.00;-1.00;-1.00;100223;1283;1058867;-30
2024/01/18 10:34:36;;;;;;;127.60;37.90;;;;;;;-128.00;-1.00;-1.00;100179;1283;1003327;-33
2024/01/18 10:37:02;;;;;;;125.90;38.30;;;;;;;-128.00;-1.00;-1.00;100521;1285;1038597;-32
2024/01/18 10:39:27;;;;;;;135.60;40.20;;;;;;;-128.00;-1.00;-1.00;100274;1282;1003600;-33
2024/01/18 10:41:53;;;;;;;143.90;41.10;;;;;;;-128.00;-1.00;-1.00;100529;1282;1004782;-33
2024/01/18 10:44:19;;;;;;;135.40;40.00;;;;;;;-128.00;-1.00;-1.00;100391;1283;1003534;-33
2024/01/18 10:46:45;;;;;;;152.70;43.00;;;;;;;-128.00;-1.00;-1.00;100473;1283;1002678;-30
2024/01/18 10:49:11;;;;;;;157.40;43.70;;;;;;;-128.00;-1.00;-1.00;100471;1284;1004356;-30
2024/01/18 10:51:37;;;;;;;;;;;;;;;-128.00;-1.00;-1.00;100433;1283;1003520;-31
2024/01/18 10:54:03;;;;;;;116.50;38.10;;;;;;;-128.00;-1.00;-1.00;100478;1281;1002695;-32
2024/01/18 10:56:28;;;;;;;136.80;41.80;;;;;;;-128.00;-1.00;-1.00;100506;1282;1003740;-32
2024/01/18 10:58:54;;;;;;;144.00;44.50;;;;;;;-128.00;-1.00;-1.00;100426;1283;1013613;-36
2024/01/18 11:01:21;;;;;;;146.50;42.50;;;;;;;-128.00;-1.00;-1.00;100507;1285;1002936;-33
2024/01/18 11:03:47;;;;;;;133.20;39.30;;;;;;;-128.00;-1.00;-1.00;100330;1283;1003713;-30
2024/01/18 11:06:12;;;;;;;142.30;42.20;;;;;;;-128.00;-1.00;-1.00;100505;1283;1003913;-29
2024/01/18 11:08:38;;;;;;;124.00;39.20;;;;;;;-128.00;-1.00;-1.00;100400;1283;1058878;-32
2024/01/18 11:11:03;;;;;;;130.20;40.40;;;;;;;-128.00;-1.00;-1.00;100440;1283;1003539;-30
2024/01/18 11:13:29;;;;;;;135.50;41.30;;;;;;;-128.00;-1.00;-1.00;100475;1284;1004068;-32
2024/01/18 11:15:55;;;;;;;142.30;41.30;;;;;;;-128.00;-1.00;-1.00;100301;1281;1060540;-30
2024/01/18 11:18:21;;;;;;;130.70;39.20;;;;;;;-128.00;-1.00;-1.00;100454;1283;1003266;-32
2024/01/18 11:21:01;;;;;;;152.90;41.90;;;;;;;-128.00;-1.00;-1.00;100453;1283;1003771;-29
2024/01/18 11:23:34;;;;;;;118.00;36.30;;;;;;;-128.00;-1.00;-1.00;100099;1283;1012910;-33
2024/01/18 11:26:02;;;;;;;156.70;43.30;;;;;;;-128.00;-1.00;-1.00;100473;1285;1038515;-33
2024/01/18 11:28:32;;;;;;;146.50;43.20;;;;;;;-128.00;-1.00;-1.00;100531;1283;1046327;-33
2024/01/18 11:30:59;;;;;;;117.40;34.10;;;;;;;-128.00;-1.00;-1.00;100300;1283;1061043;-30
2024/01/18 11:33:26;;;;;;;161.90;46.60;;;;;;;-128.00;-1.00;-1.00;100601;1282;1003489;-31
2024/01/18 11:35:53;;;;;;;131.40;39.10;;;;;;;-128.00;-1.00;-1.00;100428;1281;1002966;-30
2024/01/18 11:38:20;;;;;;;162.10;44.00;;;;;;;-128.00;-1.00;-1.00;100394;1283;1004490;-30
2024/01/18 11:40:49;;;;;;;147.70;42.60;;;;;;;-128.00;-1.00;-1.00;100330;1287;1003009;-33